Bookmark and Share
Track history (hours):
 

Ever Diamond

Last reported at 2014-Apr-23 15:00 UTC. Time now 2014-Apr-24 05:56 UTC.
Position N 43°54' E 175°54'.

Type: Ship (hazmat cat D). MMSI: 354893000.

Wind from 140 at 28 knots

Barometer 1003.0 mb
Air temperature 8.0 ° C
Visibility: greater than 5.4 NM
Dewpoint 8.0 ° C
Water temperature 6.0 ° C

NotesDate/timePositionNaut miles runAvg speedWind from/ knotsBaromVisibWave heightAir tempDewpointWater temp
2014-Apr-23 15:00N 43°54' E 175°54'18416.7 140 / 281003.0 5.4 8.0 8.0 6.0
2014-Apr-23 04:00N 43°30' E 171°42'54417.0 160 / 121015.010.8 1.0 8.0 8.0 6.0
2014-Apr-21 20:00N 41°18' E 159°48'7619.1 260 / 101025.010.8 7.3 7.019.0
2014-Apr-21 16:00N 40°54' E 158°12'16017.8 240 / 131023.010.8 7.0 7.0 7.0
2014-Apr-21 07:00N 40°00' E 154°54'7812.9 270 / 81025.010.8 0.5 6.0 6.019.0
2014-Apr-21 01:00N 39°36' E 153°18'15522.1 290 / 41025.010.8 0.5 4.9 5.019.0
2014-Apr-20 18:00N 38°30' E 150°18'29917.6 340 / 121023.010.8 8.0 7.019.0
2014-Apr-20 01:00N 36°24' E 144°36'67516.7 360 / 101025.0 5.4 1.511.011.017.0
2014-Apr-18 08:33N 31°41' E 132°17'84018.2
2014-Apr-16 10:16N 22°56' E 119°58'1317.8
2014-Apr-16 09:33N 22°45' E 120°05'1413.7
2014-Apr-16 08:33N 22°34' E 120°13'6 2.6
2014-Apr-16 06:12N 22°33' E 120°20'0 0.0
2014-Apr-16 05:30N 22°33' E 120°20'0 0.0
2014-Apr-16 04:18N 22°33' E 120°20'0 0.0
2014-Apr-16 03:18N 22°33' E 120°20'0 0.0
2014-Apr-16 01:24N 22°33' E 120°20'0 0.0
2014-Apr-16 00:18N 22°33' E 120°20'0 0.0
2014-Apr-15 23:28N 22°33' E 120°20'0 0.0
2014-Apr-15 22:30N 22°33' E 120°20'0 0.0
2014-Apr-15 21:30N 22°33' E 120°20'0 0.0
2014-Apr-15 20:30N 22°33' E 120°20'0 0.0
2014-Apr-15 19:30N 22°33' E 120°20'0 0.0
2014-Apr-15 18:24N 22°33' E 120°20'0 0.0
2014-Apr-15 17:31N 22°33' E 120°20'0 0.0
2014-Apr-15 16:30N 22°33' E 120°20'0 0.3
2014-Apr-15 15:33N 22°33' E 120°20'5 4.6
2014-Apr-15 14:33N 22°32' E 120°15'1 0.6
2014-Apr-15 12:34N 22°31' E 120°15'0 0.0
2014-Apr-15 11:34N 22°31' E 120°15'0 0.0
2014-Apr-15 09:34N 22°31' E 120°15'0 0.1
2014-Apr-15 08:34N 22°31' E 120°15'0 0.1
2014-Apr-15 07:34N 22°31' E 120°15'0 0.0
2014-Apr-15 06:34N 22°31' E 120°15'1 0.8
2014-Apr-15 05:34N 22°31' E 120°14'2814.1
2014-Apr-15 03:33N 22°29' E 119°44'9713.8
2014-Apr-14 20:31N 22°22' E 117°59'  

Dump ship's entire track history

sailing weather and tide predictions

Ever Diamond — 3FQS8 — position and weather